Time;durP1;ratioP1;P1;durP2;ratioP2;P2;SDS_P1;SDS_P2;PMS_P1;PMS_P2;Temp;Humidity;BMP_temperature;BMP_pressure;BME280_temperature;BME280_humidity;BME280_pressure;Samples;Min_cycle;Max_cycle;Signal;HPM_P1;HPM_P2
2022/12/14 00:01:26;;;;;;;2.05;1.48;;;-2.10;99.90;;;;;;4938716;28;20062;-79
2022/12/14 00:03:54;;;;;;;1.23;1.13;;;-2.10;99.90;;;;;;4934033;29;20133;-77
2022/12/14 00:06:24;;;;;;;1.20;1.08;;;-2.00;99.90;;;;;;4932976;29;20182;-78
2022/12/14 00:08:54;;;;;;;1.70;1.40;;;-2.10;99.90;;;;;;4920641;29;20051;-78
2022/12/14 00:11:23;;;;;;;1.40;0.90;;;-2.10;99.90;;;;;;4933698;29;20095;-77
2022/12/14 00:13:53;;;;;;;1.45;1.05;;;-2.10;99.90;;;;;;4933645;29;20066;-78
2022/12/14 00:16:22;;;;;;;1.50;1.40;;;-2.10;99.90;;;;;;4934764;29;20146;-78
2022/12/14 00:18:51;;;;;;;6.13;1.45;;;-2.10;99.90;;;;;;4931868;29;20138;-76
2022/12/14 00:21:20;;;;;;;1.23;1.13;;;-2.10;99.90;;;;;;4922654;29;20055;-77
2022/12/14 00:23:50;;;;;;;1.40;0.93;;;-2.10;99.90;;;;;;4941645;29;20067;-76
2022/12/14 00:26:20;;;;;;;2.33;1.25;;;-2.10;99.90;;;;;;4930720;29;20051;-76
2022/12/14 00:28:51;;;;;;;3.08;1.17;;;-2.00;99.90;;;;;;4933328;29;20059;-76
2022/12/14 00:31:20;;;;;;;3.10;1.92;;;-2.00;99.90;;;;;;4946966;29;20063;-76
2022/12/14 00:33:49;;;;;;;1.35;1.20;;;-2.00;99.90;;;;;;4941593;29;20054;-77
2022/12/14 00:36:16;;;;;;;1.30;1.20;;;-2.00;99.90;;;;;;4943873;29;20043;-77
2022/12/14 00:38:44;;;;;;;2.58;1.40;;;-1.90;99.90;;;;;;4952858;29;20053;-78
2022/12/14 00:41:12;;;;;;;4.05;2.03;;;-1.90;99.90;;;;;;4938774;29;20060;-78
2022/12/14 00:43:40;;;;;;;1.67;1.33;;;-1.90;99.90;;;;;;4932900;29;20043;-78
2022/12/14 00:46:09;;;;;;;2.05;1.20;;;-2.00;99.90;;;;;;4950273;29;20054;-77
2022/12/14 00:48:36;;;;;;;2.97;1.20;;;-2.00;99.90;;;;;;4951637;28;20078;-76
2022/12/14 00:51:04;;;;;;;3.13;1.10;;;-2.00;99.90;;;;;;4942556;28;20054;-77
2022/12/14 00:53:31;;;;;;;1.17;1.08;;;-2.10;99.90;;;;;;4936825;29;20050;-77
2022/12/14 00:56:06;;;;;;;1.67;1.27;;;-2.20;99.90;;;;;;4952654;29;20051;-78
2022/12/14 00:58:34;;;;;;;1.70;1.10;;;-2.20;99.90;;;;;;4952819;29;20079;-78
2022/12/14 01:01:03;;;;;;;1.98;1.40;;;-2.30;99.90;;;;;;4932201;28;20048;-77
2022/12/14 01:03:33;;;;;;;1.15;1.05;;;-2.30;99.90;;;;;;4941696;29;20051;-77
2022/12/14 01:06:00;;;;;;;3.10;1.67;;;-2.30;99.90;;;;;;4952763;29;20043;-78
2022/12/14 01:08:33;;;;;;;1.52;1.30;;;-2.30;99.90;;;;;;4951508;28;20058;-78
2022/12/14 01:11:05;;;;;;;1.83;1.60;;;-2.30;99.90;;;;;;4946433;29;20073;-76
2022/12/14 01:13:33;;;;;;;2.35;1.25;;;-2.40;99.90;;;;;;4939387;29;20530;-77
2022/12/14 01:16:06;;;;;;;1.52;1.42;;;-2.50;99.90;;;;;;4936847;29;20103;-79
2022/12/14 01:18:37;;;;;;;1.98;1.65;;;-2.60;99.90;;;;;;4919993;29;20059;-78
2022/12/14 01:21:13;;;;;;;1.55;0.90;;;-2.60;99.90;;;;;;4934462;29;20183;-75
2022/12/14 01:23:42;;;;;;;2.83;1.50;;;-2.70;99.90;;;;;;4933944;29;20547;-77
2022/12/14 01:26:10;;;;;;;2.72;1.33;;;-2.80;99.90;;;;;;4935969;29;20071;-77
2022/12/14 01:28:37;;;;;;;3.33;1.30;;;-2.80;99.90;;;;;;4935321;29;20055;-77
2022/12/14 01:31:07;;;;;;;3.47;1.23;;;-2.90;99.90;;;;;;4946942;29;20044;-77
2022/12/14 01:33:36;;;;;;;4.32;1.40;;;-2.80;99.90;;;;;;4918843;29;20068;-77
2022/12/14 01:36:08;;;;;;;2.30;1.20;;;-2.80;99.90;;;;;;4936992;29;20051;-77
2022/12/14 01:38:35;;;;;;;1.20;1.10;;;-2.60;99.90;;;;;;4921526;29;20142;-76
2022/12/14 01:41:04;;;;;;;1.40;1.30;;;-2.60;99.90;;;;;;4938582;29;20044;-77
2022/12/14 01:43:49;;;;;;;2.13;1.50;;;-2.50;99.90;;;;;;4951128;28;20079;-78
2022/12/14 01:46:22;;;;;;;3.50;1.73;;;-2.40;99.90;;;;;;4951219;29;20114;-77
2022/12/14 01:48:51;;;;;;;;;;;-2.30;99.90;;;;;;4948544;29;20159;-77
2022/12/14 01:51:19;;;;;;;1.73;1.20;;;-2.30;99.90;;;;;;4927697;29;20026;-78
2022/12/14 01:53:47;;;;;;;3.53;1.55;;;-2.20;99.90;;;;;;4935393;29;20074;-78
2022/12/14 01:56:17;;;;;;;1.48;1.38;;;-2.20;99.90;;;;;;4936781;29;20055;-77
2022/12/14 01:58:44;;;;;;;1.80;1.63;;;-2.10;99.90;;;;;;4955313;29;20058;-77
2022/12/14 02:01:12;;;;;;;2.35;1.45;;;-2.10;99.90;;;;;;4954220;29;20146;-77
2022/12/14 02:03:43;;;;;;;5.70;2.15;;;-2.20;99.90;;;;;;4939818;29;20075;-77
2022/12/14 02:06:17;;;;;;;1.85;1.38;;;-2.20;99.90;;;;;;4941660;29;20074;-78
2022/12/14 02:08:49;;;;;;;1.55;1.45;;;-2.20;99.90;;;;;;4939319;29;20512;-76
2022/12/14 02:11:27;;;;;;;2.05;1.55;;;-2.20;99.90;;;;;;4950120;29;20052;-78
2022/12/14 02:13:54;;;;;;;2.13;1.30;;;-2.20;99.90;;;;;;4918586;29;20114;-78
2022/12/14 02:16:22;;;;;;;2.08;1.42;;;-2.30;99.90;;;;;;4950399;29;20075;-77
2022/12/14 02:18:49;;;;;;;2.53;1.60;;;-2.30;99.90;;;;;;4970430;28;20047;-77
2022/12/14 02:21:25;;;;;;;2.13;1.48;;;-2.20;99.90;;;;;;4945694;28;20048;-77
2022/12/14 02:24:38;;;;;;;1.70;1.60;;;-2.20;99.90;;;;;;4920346;29;20044;-76
2022/12/14 02:27:15;;;;;;;1.58;1.20;;;-2.30;99.90;;;;;;4953351;29;20055;-72
2022/12/14 02:30:06;;;;;;;2.63;1.80;;;-2.30;99.90;;;;;;4935840;29;20060;-71
2022/12/14 02:33:21;;;;;;;1.35;1.25;;;-2.40;99.90;;;;;;4934793;29;20142;-71
2022/12/14 02:35:54;;;;;;;1.95;1.27;;;-2.40;99.90;;;;;;4935471;29;20067;-71
2022/12/14 02:38:42;;;;;;;1.77;1.27;;;-2.40;99.90;;;;;;4935940;29;20094;-71
2022/12/14 02:41:17;;;;;;;2.17;1.77;;;-2.40;99.90;;;;;;4933844;29;20124;-71
2022/12/14 02:44:03;;;;;;;1.73;1.52;;;-2.30;99.90;;;;;;4953679;28;20613;-71
2022/12/14 02:46:41;;;;;;;5.78;1.95;;;-2.40;99.90;;;;;;4918185;29;20500;-71
2022/12/14 02:49:15;;;;;;;4.25;1.98;;;-2.50;99.90;;;;;;4917724;29;20086;-72
2022/12/14 02:51:54;;;;;;;4.00;2.67;;;-2.50;99.90;;;;;;4933728;29;20111;-71
2022/12/14 02:54:30;;;;;;;4.45;1.73;;;-2.50;99.90;;;;;;4934571;29;20113;-71
2022/12/14 02:57:05;;;;;;;3.75;2.10;;;-2.50;99.90;;;;;;4920503;29;20089;-70
2022/12/14 02:59:34;;;;;;;2.38;2.03;;;-2.50;99.90;;;;;;4934909;29;20135;-71
2022/12/14 03:02:04;;;;;;;2.42;1.40;;;-2.50;99.90;;;;;;4943635;29;20056;-71
2022/12/14 03:04:32;;;;;;;4.65;1.73;;;-2.60;99.90;;;;;;4934421;29;20476;-71
2022/12/14 03:07:04;;;;;;;1.70;1.30;;;-2.60;99.90;;;;;;4917805;29;20599;-70
2022/12/14 03:09:32;;;;;;;3.83;1.90;;;-2.60;99.90;;;;;;4939596;29;20058;-70
2022/12/14 03:12:05;;;;;;;1.40;1.13;;;-2.70;99.90;;;;;;4934786;29;20050;-71
2022/12/14 03:14:38;;;;;;;1.45;1.25;;;-2.80;99.90;;;;;;4935157;29;20059;-71
2022/12/14 03:17:13;;;;;;;3.08;2.05;;;-2.80;99.90;;;;;;4917706;29;20500;-71
2022/12/14 03:19:46;;;;;;;1.90;1.40;;;-2.90;99.90;;;;;;4948635;29;20420;-70
2022/12/14 03:22:20;;;;;;;3.03;1.77;;;-3.00;99.90;;;;;;4929426;29;20048;-71
2022/12/14 03:24:54;;;;;;;2.00;1.80;;;-3.00;99.90;;;;;;4934659;29;20119;-72
2022/12/14 03:27:27;;;;;;;5.28;1.75;;;-3.00;99.90;;;;;;4936597;29;20049;-71
2022/12/14 03:30:00;;;;;;;2.45;1.85;;;-3.00;99.90;;;;;;4953772;29;20098;-71
2022/12/14 03:32:31;;;;;;;2.80;1.85;;;-2.90;99.90;;;;;;4933015;29;20051;-72
2022/12/14 03:35:04;;;;;;;3.00;2.13;;;-2.90;99.90;;;;;;4934176;29;20275;-76
2022/12/14 03:37:38;;;;;;;3.10;2.38;;;-2.90;99.90;;;;;;4928222;29;20047;-78
2022/12/14 03:40:10;;;;;;;1.88;1.60;;;-3.10;99.90;;;;;;4953761;29;20047;-78
2022/12/14 03:42:48;;;;;;;3.43;2.20;;;-3.20;99.90;;;;;;4922840;29;20491;-77
2022/12/14 03:45:21;;;;;;;1.95;1.60;;;-3.30;99.90;;;;;;4917193;29;20318;-77
2022/12/14 03:48:00;;;;;;;;;;;-3.50;99.90;;;;;;4936811;29;20059;-77
2022/12/14 03:50:36;;;;;;;4.85;2.13;;;-3.60;99.90;;;;;;4968408;28;19968;-78
2022/12/14 03:53:09;;;;;;;3.40;2.17;;;-3.80;99.90;;;;;;4938116;29;20150;-75
2022/12/14 03:55:44;;;;;;;7.00;2.10;;;-3.90;99.90;;;;;;4928292;29;20419;-77
2022/12/14 03:58:29;;;;;;;2.70;2.15;;;-4.00;99.90;;;;;;4936575;29;20058;-77
2022/12/14 04:01:05;;;;;;;4.32;2.60;;;-4.10;99.90;;;;;;4953170;29;20436;-77
2022/12/14 04:03:46;;;;;;;6.10;3.70;;;-4.20;99.90;;;;;;4941134;29;20110;-76
2022/12/14 04:06:24;;;;;;;8.55;4.15;;;-4.20;99.90;;;;;;4952785;29;20142;-79
2022/12/14 04:09:03;;;;;;;10.40;4.20;;;-4.30;99.90;;;;;;4953247;29;20054;-77
2022/12/14 04:20:31;;;;;;;14.50;6.03;;;-4.60;99.90;;;;;;4900465;29;20062;-72
2022/12/14 04:23:07;;;;;;;11.77;5.00;;;-4.60;99.90;;;;;;4936489;29;20052;-76
2022/12/14 04:31:53;;;;;;;24.33;9.13;;;-4.80;99.90;;;;;;4958937;28;20046;-77
2022/12/14 04:34:29;;;;;;;71.00;25.58;;;-4.80;99.90;;;;;;4931471;29;20568;-71
2022/12/14 04:37:06;;;;;;;20.58;6.93;;;-4.90;99.90;;;;;;4927972;29;20052;-70
2022/12/14 04:39:49;;;;;;;23.98;7.90;;;-4.90;99.90;;;;;;4931731;29;20150;-72
2022/12/14 04:42:24;;;;;;;22.52;8.25;;;-4.90;99.90;;;;;;4916923;29;20154;-74
2022/12/14 04:44:59;;;;;;;21.90;7.32;;;-4.90;99.90;;;;;;4934496;29;20146;-76
2022/12/14 04:47:41;;;;;;;16.02;6.82;;;-5.00;99.90;;;;;;4936637;29;20048;-75
2022/12/14 04:50:13;;;;;;;19.77;6.43;;;-5.00;99.90;;;;;;4933108;29;20058;-76
2022/12/14 04:52:48;;;;;;;16.27;8.48;;;-5.10;99.90;;;;;;4954480;29;20105;-77
2022/12/14 04:55:23;;;;;;;15.07;6.20;;;-5.10;99.90;;;;;;4932259;29;20081;-71
2022/12/14 04:57:58;;;;;;;10.57;4.70;;;-5.10;99.90;;;;;;4938443;29;20046;-71
2022/12/14 05:00:26;;;;;;;10.35;5.35;;;-5.10;99.90;;;;;;4913198;29;20053;-71
2022/12/14 05:03:20;;;;;;;12.05;4.93;;;-5.20;99.90;;;;;;4936569;29;20095;-77
2022/12/14 05:06:01;;;;;;;9.48;4.82;;;-5.20;99.90;;;;;;4949738;29;20075;-77
2022/12/14 05:09:00;;;;;;;23.80;7.70;;;-5.30;99.90;;;;;;4937830;29;20058;-75
2022/12/14 05:11:31;;;;;;;21.27;7.50;;;-5.30;99.90;;;;;;4951938;29;20127;-76
2022/12/14 05:14:03;;;;;;;19.80;6.88;;;-5.40;99.90;;;;;;4937736;29;20068;-76
2022/12/14 05:16:31;;;;;;;21.10;7.03;;;-5.40;99.90;;;;;;4919667;29;20067;-73
2022/12/14 05:18:58;;;;;;;17.52;7.25;;;-5.40;99.90;;;;;;4919824;29;20588;-74
2022/12/14 05:24:12;;;;;;;27.55;10.57;;;-5.40;99.90;;;;;;4936819;29;20054;-71
2022/12/14 05:26:40;;;;;;;30.65;10.63;;;-5.50;99.90;;;;;;4916719;29;20373;-71
2022/12/14 05:29:07;;;;;;;27.48;8.23;;;-5.50;99.90;;;;;;4919847;29;20469;-71
2022/12/14 05:31:35;;;;;;;21.70;6.55;;;-5.40;99.90;;;;;;4906537;29;20079;-71
2022/12/14 05:34:02;;;;;;;18.52;6.78;;;-5.40;99.90;;;;;;4928440;29;20155;-70
2022/12/14 05:36:30;;;;;;;16.30;6.57;;;-5.40;99.90;;;;;;4936557;29;20665;-71
2022/12/14 05:38:57;;;;;;;18.95;6.82;;;-5.40;99.90;;;;;;4928078;29;20445;-75
2022/12/14 05:41:26;;;;;;;17.27;5.97;;;-5.40;99.90;;;;;;4917037;29;20245;-74
2022/12/14 05:43:53;;;;;;;12.38;6.30;;;-5.30;99.90;;;;;;4931295;29;20058;-74
2022/12/14 05:46:20;;;;;;;12.48;6.53;;;-5.30;99.90;;;;;;4934945;29;20421;-74
2022/12/14 05:48:48;;;;;;;16.95;6.28;;;-5.30;99.90;;;;;;4936349;29;20063;-75
2022/12/14 05:51:15;;;;;;;16.98;6.63;;;-5.20;99.90;;;;;;4936249;29;20103;-75
2022/12/14 05:53:43;;;;;;;18.52;6.68;;;-5.20;99.90;;;;;;4951365;29;20047;-75
2022/12/14 05:56:12;;;;;;;13.50;5.90;;;-5.00;99.90;;;;;;4938457;28;20061;-74
2022/12/14 05:58:42;;;;;;;12.27;4.57;;;-5.00;99.90;;;;;;4915330;29;20056;-74
2022/12/14 06:01:11;;;;;;;15.35;5.00;;;-4.80;99.90;;;;;;4924685;29;20091;-75
2022/12/14 06:03:39;;;;;;;13.65;6.45;;;-4.70;99.90;;;;;;4953206;28;20153;-71
2022/12/14 06:06:09;;;;;;;12.63;6.25;;;-4.70;99.90;;;;;;4953084;29;20062;-76
2022/12/14 06:08:41;;;;;;;12.65;7.10;;;-4.60;99.90;;;;;;4927948;29;20056;-76
2022/12/14 06:11:11;;;;;;;21.88;7.53;;;-4.50;99.90;;;;;;4939073;29;20216;-75
2022/12/14 06:13:41;;;;;;;16.25;8.23;;;-4.50;99.90;;;;;;4935391;29;20515;-74
2022/12/14 06:16:21;;;;;;;24.75;9.98;;;-4.40;99.90;;;;;;4952724;29;20542;-76
2022/12/14 06:18:55;;;;;;;37.22;12.55;;;-4.40;99.90;;;;;;4967362;28;20423;-75
2022/12/14 06:21:31;;;;;;;40.33;15.07;;;-4.30;99.90;;;;;;4950195;29;20051;-75
2022/12/14 06:23:59;;;;;;;42.03;14.93;;;-4.30;99.90;;;;;;4904347;29;20043;-75
2022/12/14 06:26:28;;;;;;;27.83;10.82;;;-4.30;99.90;;;;;;4922910;29;20044;-76
2022/12/14 06:28:58;;;;;;;25.77;11.27;;;-4.30;99.90;;;;;;4923843;29;20134;-75
2022/12/14 06:31:29;;;;;;;27.73;10.80;;;-4.30;99.90;;;;;;4923477;29;20147;-74
2022/12/14 06:33:59;;;;;;;18.90;9.43;;;-4.30;99.90;;;;;;4927503;29;20075;-76
2022/12/14 06:36:29;;;;;;;19.45;7.90;;;-4.30;99.90;;;;;;4916933;29;20509;-75
2022/12/14 06:39:01;;;;;;;23.48;8.55;;;-4.30;99.90;;;;;;4926747;29;20082;-69
2022/12/14 06:41:29;;;;;;;17.13;8.75;;;-4.20;99.90;;;;;;4924593;29;20102;-70
2022/12/14 06:44:03;;;;;;;19.17;8.13;;;-4.20;99.90;;;;;;4935119;29;20138;-70
2022/12/14 06:46:31;;;;;;;16.38;6.85;;;-4.20;99.90;;;;;;4933022;29;20068;-70
2022/12/14 06:48:59;;;;;;;15.02;6.95;;;-4.20;99.90;;;;;;4926101;29;20044;-72
2022/12/14 06:51:26;;;;;;;15.63;6.15;;;-4.20;99.90;;;;;;4922066;29;20060;-70
2022/12/14 06:53:56;;;;;;;16.88;6.32;;;-4.20;99.90;;;;;;4911153;29;20483;-71
2022/12/14 06:56:26;;;;;;;11.80;6.10;;;-4.20;99.90;;;;;;4937407;28;20047;-72
2022/12/14 06:58:57;;;;;;;11.23;6.18;;;-4.30;99.90;;;;;;4939711;29;20081;-71
2022/12/14 07:01:25;;;;;;;13.05;7.18;;;-4.30;99.90;;;;;;4925332;29;20044;-71
2022/12/14 07:03:55;;;;;;;15.32;7.10;;;-4.30;99.90;;;;;;4925094;29;20036;-72
2022/12/14 07:06:24;;;;;;;12.05;6.35;;;-4.30;99.90;;;;;;4938735;28;20047;-71
2022/12/14 07:08:55;;;;;;;21.17;6.75;;;-4.30;99.90;;;;;;4922694;29;20032;-70
2022/12/14 07:11:22;;;;;;;18.63;7.00;;;-4.40;99.90;;;;;;4924783;29;20509;-75
2022/12/14 07:13:50;;;;;;;12.38;6.57;;;-4.40;99.90;;;;;;4929367;29;20062;-75
2022/12/14 07:16:22;;;;;;;17.80;8.60;;;-4.40;99.90;;;;;;4924981;29;20075;-76
2022/12/14 07:18:50;;;;;;;;;;;-4.40;99.90;;;;;;4917441;29;20146;-76
2022/12/14 07:21:19;;;;;;;30.65;10.73;;;-4.40;99.90;;;;;;4926069;29;19927;-75
2022/12/14 07:23:48;;;;;;;36.72;12.50;;;-4.30;99.90;;;;;;4934000;29;20043;-75
2022/12/14 07:26:19;;;;;;;27.30;10.88;;;-4.30;99.90;;;;;;4912010;29;20039;-75
2022/12/14 07:28:49;;;;;;;29.08;9.10;;;-4.30;99.90;;;;;;4908823;28;20047;-75
2022/12/14 07:31:20;;;;;;;19.80;7.15;;;-4.20;99.90;;;;;;4910415;29;20047;-75
2022/12/14 07:33:48;;;;;;;18.85;7.07;;;-4.10;99.90;;;;;;4927728;29;20472;-75
2022/12/14 07:36:18;;;;;;;22.23;7.55;;;-4.10;99.90;;;;;;4928132;29;20591;-76
2022/12/14 07:38:48;;;;;;;13.80;6.88;;;-4.00;99.90;;;;;;4928678;29;20138;-75
2022/12/14 07:41:18;;;;;;;15.55;6.10;;;-3.90;99.90;;;;;;4926918;29;20533;-76
2022/12/14 07:43:46;;;;;;;19.42;8.25;;;-3.80;99.90;;;;;;4922326;29;20059;-76
2022/12/14 07:46:16;;;;;;;16.60;7.13;;;-3.70;99.90;;;;;;4923417;29;21647;-76
2022/12/14 07:48:46;;;;;;;21.40;8.48;;;-3.60;99.90;;;;;;4908740;29;20052;-76
2022/12/14 07:51:17;;;;;;;21.50;9.80;;;-3.50;99.90;;;;;;4924305;29;20114;-78
2022/12/14 07:53:44;;;;;;;14.73;7.07;;;-3.50;99.90;;;;;;4935703;29;20534;-76
2022/12/14 07:56:15;;;;;;;22.63;8.80;;;-3.50;99.90;;;;;;4929789;29;20534;-77
2022/12/14 07:58:42;;;;;;;18.95;8.43;;;-3.40;99.90;;;;;;4934792;29;20147;-75
2022/12/14 08:01:21;;;;;;;21.80;9.80;;;-3.30;99.90;;;;;;4927617;29;20047;-76
2022/12/14 08:03:53;;;;;;;15.93;6.93;;;-3.30;99.90;;;;;;4927798;29;20456;-76
2022/12/14 08:06:22;;;;;;;16.17;6.70;;;-3.20;99.90;;;;;;4928349;29;20122;-79
2022/12/14 08:08:51;;;;;;;10.85;6.43;;;-3.20;99.90;;;;;;4928172;29;20048;-77
2022/12/14 08:11:23;;;;;;;18.40;6.47;;;-3.20;99.90;;;;;;4926497;29;20057;-79
2022/12/14 08:13:54;;;;;;;15.15;7.40;;;-3.30;99.90;;;;;;4928016;29;20063;-75
2022/12/14 08:16:21;;;;;;;18.38;7.13;;;-3.30;99.90;;;;;;4927162;29;20488;-71
2022/12/14 08:18:52;;;;;;;13.82;7.07;;;-3.30;99.90;;;;;;4926548;29;20079;-71
2022/12/14 08:21:21;;;;;;;18.55;8.43;;;-3.30;99.90;;;;;;4931132;29;20130;-74
2022/12/14 08:23:49;;;;;;;21.30;10.18;;;-3.30;99.90;;;;;;4926839;29;20056;-76
2022/12/14 08:26:17;;;;;;;25.10;10.07;;;-3.20;99.90;;;;;;4927860;29;20107;-73
2022/12/14 08:28:45;;;;;;;16.10;6.78;;;-3.10;99.90;;;;;;4912256;29;20246;-72
2022/12/14 08:31:14;;;;;;;19.85;8.70;;;-3.10;99.90;;;;;;4939751;29;20464;-73
2022/12/14 08:33:43;;;;;;;17.13;8.00;;;-3.10;99.90;;;;;;4928384;29;20051;-73
2022/12/14 08:36:15;;;;;;;16.98;7.55;;;-3.20;99.90;;;;;;4925110;29;20114;-75
2022/12/14 08:38:43;;;;;;;17.58;8.00;;;-3.20;99.90;;;;;;4927466;29;20048;-74
2022/12/14 08:41:13;;;;;;;24.92;10.57;;;-3.20;99.90;;;;;;4931475;29;20050;-75
2022/12/14 08:43:41;;;;;;;32.42;8.57;;;-3.20;99.90;;;;;;4926490;29;20734;-74
2022/12/14 08:46:10;;;;;;;30.48;10.35;;;-3.20;99.90;;;;;;4930344;29;20146;-74
2022/12/14 08:48:37;;;;;;;30.30;10.38;;;-3.20;99.90;;;;;;4930249;29;20082;-74
2022/12/14 08:51:08;;;;;;;29.80;8.52;;;-3.20;99.90;;;;;;4930403;29;20048;-73
2022/12/14 08:53:38;;;;;;;25.77;9.20;;;-3.20;99.90;;;;;;4928627;29;20052;-74
2022/12/14 08:56:10;;;;;;;29.35;9.18;;;-3.30;99.90;;;;;;4930278;29;20058;-74
2022/12/14 08:58:40;;;;;;;25.65;7.88;;;-3.30;99.90;;;;;;4917928;29;20469;-74
2022/12/14 09:01:12;;;;;;;33.50;10.15;;;-3.30;99.90;;;;;;4929046;29;20048;-75
2022/12/14 09:03:44;;;;;;;21.95;10.27;;;-3.30;99.90;;;;;;4949403;29;20471;-75
2022/12/14 09:06:17;;;;;;;20.77;9.77;;;-3.30;99.90;;;;;;4949733;29;20522;-72
2022/12/14 09:08:46;;;;;;;37.45;12.40;;;-3.30;99.90;;;;;;4938471;29;20056;-75
2022/12/14 09:11:16;;;;;;;29.48;11.95;;;-3.20;99.90;;;;;;4930101;29;20543;-73
2022/12/14 09:13:45;;;;;;;36.95;12.10;;;-3.20;99.90;;;;;;4928037;29;20048;-73
2022/12/14 09:16:15;;;;;;;22.60;10.80;;;-3.20;99.90;;;;;;4929717;29;20043;-74
2022/12/14 09:18:44;;;;;;;19.40;7.65;;;-3.20;99.90;;;;;;4929456;29;20052;-73
2022/12/14 09:21:12;;;;;;;31.70;10.48;;;-3.20;99.90;;;;;;4930749;29;20060;-73
2022/12/14 09:23:41;;;;;;;24.60;10.32;;;-3.30;99.90;;;;;;4931171;29;20055;-76
2022/12/14 09:26:14;;;;;;;28.40;10.27;;;-3.40;99.90;;;;;;4931389;29;20497;-80
2022/12/14 09:28:45;;;;;;;11.70;5.70;;;-3.40;99.90;;;;;;4941078;29;20516;-80
2022/12/14 09:31:18;;;;;;;9.55;4.50;;;-3.40;99.90;;;;;;4928738;29;20496;-80
2022/12/14 09:33:46;;;;;;;13.90;5.32;;;-3.40;99.90;;;;;;4932623;29;20075;-79
2022/12/14 09:36:16;;;;;;;9.15;4.18;;;-3.40;99.90;;;;;;4936240;29;20488;-78
2022/12/14 09:38:44;;;;;;;5.40;2.67;;;-3.40;99.90;;;;;;4938907;29;20043;-80
2022/12/14 09:41:39;;;;;;;6.45;2.78;;;-3.40;99.90;;;;;;4964551;28;20052;-79
2022/12/14 09:44:15;;;;;;;5.25;3.55;;;-3.30;99.90;;;;;;4918995;29;20067;-80
2022/12/14 09:46:54;;;;;;;6.75;3.05;;;-3.30;99.90;;;;;;4935259;29;20061;-80
2022/12/14 09:49:28;;;;;;;5.13;3.13;;;-3.30;99.90;;;;;;4936483;29;20091;-75
2022/12/14 09:52:00;;;;;;;5.03;2.75;;;-3.30;99.90;;;;;;4910738;29;20083;-75
2022/12/14 09:54:32;;;;;;;10.60;3.92;;;-3.20;99.90;;;;;;4932184;29;20052;-74
2022/12/14 09:57:08;;;;;;;9.45;4.65;;;-3.20;99.90;;;;;;4927766;29;20055;-75
2022/12/14 09:59:36;;;;;;;8.70;4.13;;;-3.20;99.90;;;;;;4910934;29;20564;-76
2022/12/14 10:02:27;;;;;;;11.30;5.35;;;-3.20;99.90;;;;;;4930320;29;20064;-75
2022/12/14 10:05:10;;;;;;;17.38;6.68;;;-3.10;99.90;;;;;;4931690;29;20063;-76
2022/12/14 10:07:42;;;;;;;9.38;5.43;;;-3.10;99.90;;;;;;4943453;29;20140;-75
2022/12/14 10:10:19;;;;;;;;;;;-3.10;99.90;;;;;;4934707;29;20044;-75
2022/12/14 10:12:59;;;;;;;21.40;8.68;;;-3.00;99.90;;;;;;4933555;29;19926;-76
2022/12/14 10:15:33;;;;;;;28.90;10.75;;;-3.00;99.90;;;;;;4934586;29;20060;-75
2022/12/14 10:18:11;;;;;;;;;;;-3.00;99.90;;;;;;4934182;29;20079;-74
2022/12/14 10:20:47;;;;;;;14.18;5.15;;;-3.00;99.90;;;;;;4933951;29;19966;-74
2022/12/14 10:23:19;;;;;;;10.60;3.95;;;-3.00;99.90;;;;;;4946861;29;20057;-77
2022/12/14 10:25:50;;;;;;;8.05;3.65;;;-3.10;99.90;;;;;;4933989;29;20122;-75
2022/12/14 10:28:24;;;;;;;14.80;6.80;;;-3.00;99.90;;;;;;4930933;29;20043;-76
2022/12/14 10:30:55;;;;;;;7.45;4.47;;;-3.00;99.90;;;;;;4934964;29;20540;-75
2022/12/14 10:33:29;;;;;;;10.15;5.75;;;-3.00;99.90;;;;;;4933539;29;20062;-78
2022/12/14 10:36:12;;;;;;;14.82;5.90;;;-3.00;99.90;;;;;;4933663;29;20089;-76
2022/12/14 10:38:48;;;;;;;11.52;5.90;;;-3.00;99.90;;;;;;4932208;29;20059;-70
2022/12/14 10:41:23;;;;;;;17.05;7.30;;;-3.00;99.90;;;;;;4928743;29;20044;-70
2022/12/14 10:44:00;;;;;;;15.73;6.30;;;-3.00;99.90;;;;;;4932620;29;20568;-71
2022/12/14 10:46:39;;;;;;;5.88;4.50;;;-3.00;99.90;;;;;;4933318;29;20200;-72
2022/12/14 10:49:16;;;;;;;16.83;8.00;;;-3.10;99.90;;;;;;4933720;29;20134;-70
2022/12/14 10:51:49;;;;;;;28.05;11.88;;;-3.00;99.90;;;;;;4933993;29;20107;-71
2022/12/14 10:54:55;;;;;;;37.15;12.98;;;-3.00;99.90;;;;;;4932780;29;20115;-70
2022/12/14 10:57:55;;;;;;;18.20;8.85;;;-3.00;99.90;;;;;;4932668;29;20058;-71
2022/12/14 11:00:24;;;;;;;15.90;7.90;;;-2.80;99.90;;;;;;4915867;29;20134;-70
2022/12/14 11:02:56;;;;;;;7.20;4.80;;;-2.70;99.90;;;;;;4930307;29;20039;-71
2022/12/14 11:05:34;;;;;;;24.92;10.40;;;-2.70;99.90;;;;;;4933570;29;20107;-72
2022/12/14 11:08:02;;;;;;;16.05;8.27;;;-2.80;99.90;;;;;;4932720;29;20110;-71
2022/12/14 11:10:31;;;;;;;13.55;6.70;;;-2.90;99.90;;;;;;4928353;29;20047;-70
2022/12/14 11:13:06;;;;;;;13.82;7.10;;;-2.90;99.90;;;;;;4925504;29;20051;-70
2022/12/14 11:16:15;;;;;;;15.10;8.00;;;-3.00;99.90;;;;;;4932686;29;20107;-71
2022/12/14 11:19:01;;;;;;;22.90;9.75;;;-3.00;99.90;;;;;;4919236;29;20114;-70
2022/12/14 11:21:32;;;;;;;28.33;12.00;;;-3.00;99.90;;;;;;4932939;29;20461;-71
2022/12/14 11:24:01;;;;;;;21.23;9.98;;;-2.90;99.90;;;;;;4914207;29;20075;-71
2022/12/14 11:26:34;;;;;;;21.35;10.85;;;-2.90;99.90;;;;;;4932122;29;20058;-71
2022/12/14 11:29:04;;;;;;;18.92;9.43;;;-2.90;99.90;;;;;;4932477;29;20044;-71
2022/12/14 11:31:38;;;;;;;21.70;9.45;;;-2.90;99.90;;;;;;4914659;29;20055;-71
2022/12/14 11:34:07;;;;;;;23.30;10.93;;;-2.80;99.90;;;;;;4929072;29;20055;-69
2022/12/14 11:36:38;;;;;;;23.48;10.73;;;-2.80;99.90;;;;;;4929676;29;20401;-69
2022/12/14 11:39:20;;;;;;;26.70;11.30;;;-2.70;99.90;;;;;;4944248;28;20044;-71
2022/12/14 11:41:50;;;;;;;34.63;15.15;;;-2.70;99.90;;;;;;4930980;29;20048;-71
2022/12/14 11:44:24;;;;;;;20.70;9.52;;;-2.70;99.90;;;;;;4932095;29;20048;-71
2022/12/14 11:47:05;;;;;;;27.05;11.38;;;-2.70;99.90;;;;;;4927845;29;20504;-70
2022/12/14 11:49:42;;;;;;;29.30;13.52;;;-2.70;99.90;;;;;;4927510;29;20042;-69
2022/12/14 11:52:13;;;;;;;23.08;11.35;;;-2.70;99.90;;;;;;4932957;29;20371;-76
2022/12/14 11:54:43;;;;;;;25.38;12.63;;;-2.70;99.90;;;;;;4931593;29;20118;-75
2022/12/14 11:57:23;;;;;;;37.97;15.10;;;-2.70;99.90;;;;;;4932416;29;20078;-76
2022/12/14 11:59:54;;;;;;;37.95;16.60;;;-2.60;99.90;;;;;;4932658;29;20048;-75
2022/12/14 12:02:30;;;;;;;33.40;14.93;;;-2.60;99.90;;;;;;4915303;29;20079;-77
2022/12/14 12:05:06;;;;;;;32.10;15.98;;;-2.50;99.90;;;;;;4932209;29;20052;-75
2022/12/14 12:07:36;;;;;;;34.50;15.98;;;-2.50;99.90;;;;;;4947048;28;20055;-75
2022/12/14 12:10:15;;;;;;;40.42;16.40;;;-2.40;99.90;;;;;;4929999;29;20461;-74
2022/12/14 12:12:51;;;;;;;36.60;16.98;;;-2.50;99.90;;;;;;4930654;29;20063;-76
2022/12/14 12:15:22;;;;;;;29.77;14.90;;;-2.50;99.90;;;;;;4931230;29;20158;-76
2022/12/14 12:17:55;;;;;;;40.60;15.93;;;-2.50;99.90;;;;;;4933340;29;20048;-77
2022/12/14 12:20:34;;;;;;;;;;;-2.50;99.90;;;;;;4931651;29;20056;-77
2022/12/14 12:23:12;;;;;;;44.33;17.17;;;-2.40;99.90;;;;;;4931791;29;20017;-75
2022/12/14 12:25:40;;;;;;;47.45;18.20;;;-2.40;99.90;;;;;;4931275;29;20055;-76
2022/12/14 12:28:16;;;;;;;41.47;13.82;;;-2.30;99.90;;;;;;4931080;29;20416;-77
2022/12/14 12:30:49;;;;;;;40.55;13.57;;;-2.30;99.90;;;;;;4904553;29;20632;-77
2022/12/14 12:33:46;;;;;;;39.85;13.55;;;-2.30;99.90;;;;;;4926968;29;20134;-76
2022/12/14 12:36:17;;;;;;;31.08;13.45;;;-2.20;99.90;;;;;;4909696;29;20504;-79
2022/12/14 12:38:59;;;;;;;37.72;14.32;;;-2.20;99.90;;;;;;4929048;29;20070;-76
2022/12/14 12:41:40;;;;;;;35.47;13.75;;;-2.30;99.90;;;;;;4926443;29;20138;-78
2022/12/14 12:44:23;;;;;;;22.10;10.73;;;-2.30;99.90;;;;;;4929181;29;20528;-77
2022/12/14 12:47:09;;;;;;;13.70;7.28;;;-2.40;99.90;;;;;;4910133;29;20056;-77
2022/12/14 12:49:37;;;;;;;14.68;7.20;;;-2.40;99.90;;;;;;4929206;29;20548;-76
2022/12/14 12:52:15;;;;;;;17.50;8.60;;;-2.50;99.90;;;;;;4902109;29;20056;-77
2022/12/14 12:54:54;;;;;;;12.43;6.85;;;-2.60;99.90;;;;;;4947138;29;20051;-77
2022/12/14 12:57:23;;;;;;;16.75;9.15;;;-2.60;99.90;;;;;;4950022;29;21398;-76
2022/12/14 12:59:54;;;;;;;22.02;11.05;;;-2.60;99.90;;;;;;4932554;29;20043;-78
2022/12/14 13:02:30;;;;;;;22.77;10.68;;;-2.60;99.90;;;;;;4948683;29;20047;-77
2022/12/14 13:05:03;;;;;;;22.75;11.70;;;-2.60;99.90;;;;;;4947045;28;20086;-77
2022/12/14 13:07:36;;;;;;;47.30;17.85;;;-2.50;99.90;;;;;;4915262;29;20051;-76
2022/12/14 13:10:14;;;;;;;27.83;10.25;;;-2.50;99.90;;;;;;4930354;29;20157;-76
2022/12/14 13:12:47;;;;;;;33.17;11.57;;;-2.50;99.90;;;;;;4933292;29;20071;-71
2022/12/14 13:15:23;;;;;;;41.90;14.13;;;-2.50;99.90;;;;;;4944499;29;20062;-71
2022/12/14 13:17:54;;;;;;;55.90;13.35;;;-2.50;99.90;;;;;;4952866;29;20055;-72
2022/12/14 13:20:27;;;;;;;17.95;10.77;;;-2.40;99.90;;;;;;4954468;29;20051;-71
2022/12/14 13:22:56;;;;;;;18.33;10.30;;;-2.40;99.90;;;;;;4953580;29;20055;-71
2022/12/14 13:25:34;;;;;;;21.13;10.85;;;-2.40;99.90;;;;;;4952803;29;20058;-73
2022/12/14 13:28:43;;;;;;;18.15;10.90;;;-2.40;99.90;;;;;;4942252;29;20079;-70